createdAt,value
2023-02-14T00:04:05.657Z,3.27
2023-02-14T00:09:16.664Z,3.40
2023-02-14T00:14:37.718Z,3.31
2023-02-14T00:19:39.812Z,3.34
2023-02-14T00:24:41.858Z,3.35
2023-02-14T00:29:43.865Z,3.41
2023-02-14T00:34:45.869Z,3.46
2023-02-14T00:39:48.114Z,3.51
2023-02-14T00:44:51.560Z,3.51
2023-02-14T00:49:55.488Z,3.49
2023-02-14T00:54:57.477Z,3.47
2023-02-14T00:59:59.981Z,3.38
2023-02-14T01:05:02.217Z,3.30
2023-02-14T01:10:06.313Z,3.29
2023-02-14T01:15:08.940Z,3.13
2023-02-14T01:20:11.319Z,3.03
2023-02-14T01:25:13.464Z,3.00
2023-02-14T01:30:16.000Z,3.01
2023-02-14T01:35:18.124Z,3.01
2023-02-14T01:40:20.326Z,2.97
2023-02-14T01:45:26.925Z,3.07
2023-02-14T01:50:34.422Z,3.04
2023-02-14T01:55:39.902Z,3.03
2023-02-14T02:00:59.646Z,2.92
2023-02-14T02:06:26.351Z,3.04
2023-02-14T02:11:29.176Z,2.88
2023-02-14T02:16:53.050Z,3.06
2023-02-14T02:22:25.762Z,2.94
2023-02-14T02:27:49.513Z,3.05
2023-02-14T02:33:20.631Z,3.09
2023-02-14T02:38:41.931Z,3.09
2023-02-14T02:43:55.528Z,2.92
2023-02-14T02:49:47.917Z,2.72
2023-02-14T02:54:57.748Z,2.58
2023-02-14T03:00:02.497Z,2.56
2023-02-14T03:05:06.830Z,2.64
2023-02-14T03:10:14.946Z,2.83
2023-02-14T03:15:35.613Z,2.85
2023-02-14T03:20:55.163Z,3.06
2023-02-14T03:26:20.363Z,3.07
2023-02-14T03:31:41.842Z,2.95
2023-02-14T03:36:53.187Z,2.79
2023-02-14T03:42:14.534Z,2.68
2023-02-14T03:47:21.387Z,2.60
2023-02-14T03:52:26.833Z,2.54
2023-02-14T03:57:51.416Z,2.55
2023-02-14T04:02:58.996Z,2.40
2023-02-14T04:08:01.503Z,2.29
2023-02-14T04:13:03.572Z,2.27
2023-02-14T04:18:24.206Z,2.25
2023-02-14T04:23:26.262Z,2.44
2023-02-14T04:28:28.213Z,2.50
2023-02-14T04:33:31.117Z,2.58
2023-02-14T04:38:33.352Z,2.63
2023-02-14T04:43:35.388Z,2.62
2023-02-14T04:48:37.391Z,2.64
2023-02-14T04:53:40.560Z,2.67
2023-02-14T04:58:42.694Z,2.73
2023-02-14T05:03:44.711Z,2.75
2023-02-14T05:08:46.729Z,2.81
2023-02-14T05:13:48.779Z,2.86
2023-02-14T05:18:50.805Z,2.90
2023-02-14T05:23:52.810Z,2.89
2023-02-14T05:28:54.833Z,2.89
2023-02-14T05:33:56.921Z,2.90
2023-02-14T05:38:58.962Z,2.92
2023-02-14T05:44:01.005Z,2.97
2023-02-14T05:49:03.752Z,3.02
2023-02-14T05:54:05.829Z,3.11
2023-02-14T05:59:07.839Z,3.28
2023-02-14T06:04:09.918Z,3.37
2023-02-14T06:09:11.960Z,3.52
2023-02-14T06:14:14.191Z,3.64
2023-02-14T06:19:16.236Z,3.74
2023-02-14T06:24:18.279Z,3.62
2023-02-14T06:29:20.281Z,3.84
2023-02-14T06:34:22.295Z,3.98
2023-02-14T06:39:24.330Z,3.99
2023-02-14T06:44:26.362Z,3.96
2023-02-14T06:49:28.420Z,3.94
2023-02-14T06:54:30.451Z,3.99
2023-02-14T06:59:32.457Z,4.08
2023-02-14T07:04:34.481Z,4.03
2023-02-14T07:09:36.656Z,4.29
2023-02-14T07:14:38.807Z,4.45
2023-02-14T07:19:40.823Z,4.57
2023-02-14T07:24:42.873Z,4.65
2023-02-14T07:29:45.145Z,4.74
2023-02-14T07:34:48.240Z,4.81
2023-02-14T07:39:50.407Z,4.88
2023-02-14T07:44:52.436Z,5.02
2023-02-14T07:49:54.546Z,5.05
2023-02-14T07:54:56.584Z,5.08
2023-02-14T07:59:58.634Z,5.41
2023-02-14T08:05:00.779Z,6.14
2023-02-14T08:10:02.860Z,6.75
2023-02-14T08:15:24.185Z,6.78
2023-02-14T08:20:26.233Z,6.31
2023-02-14T08:25:28.299Z,5.71
2023-02-14T08:30:31.526Z,5.25
2023-02-14T08:35:33.833Z,4.77
2023-02-14T08:40:37.332Z,4.42
2023-02-14T08:45:40.389Z,4.41
2023-02-14T08:50:42.963Z,4.46
2023-02-14T08:55:44.997Z,4.81
2023-02-14T09:00:47.369Z,5.23
2023-02-14T09:05:49.416Z,5.56
2023-02-14T09:10:52.315Z,5.65
2023-02-14T09:15:54.329Z,5.58
2023-02-14T09:20:56.417Z,5.43
2023-02-14T09:26:06.986Z,5.46
2023-02-14T09:31:18.053Z,5.67
2023-02-14T09:36:20.315Z,5.94
2023-02-14T09:41:25.448Z,6.37
2023-02-14T09:46:29.944Z,6.50
2023-02-14T09:51:32.245Z,6.54
2023-02-14T09:56:52.159Z,8.03
2023-02-14T10:02:24.002Z,8.38
2023-02-14T10:07:42.865Z,7.89
2023-02-14T10:13:01.141Z,7.12
2023-02-14T10:18:12.321Z,6.38
2023-02-14T10:23:20.137Z,5.96
2023-02-14T10:28:30.328Z,5.95
2023-02-14T10:33:36.393Z,6.11
2023-02-14T10:39:02.484Z,6.66
2023-02-14T10:44:23.126Z,6.76
2023-02-14T10:49:47.024Z,6.88
2023-02-14T10:54:57.917Z,6.51
2023-02-14T11:00:11.020Z,6.18
2023-02-14T11:05:30.154Z,6.04
2023-02-14T11:10:34.289Z,5.62
2023-02-14T11:15:39.959Z,5.61
2023-02-14T11:20:42.025Z,5.50
2023-02-14T11:25:51.551Z,5.78
2023-02-14T11:30:53.965Z,5.98
2023-02-14T11:35:57.296Z,6.48
2023-02-14T11:41:00.435Z,6.70
2023-02-14T11:46:27.731Z,7.15
2023-02-14T11:51:40.404Z,8.13
2023-02-14T11:56:56.645Z,9.88
2023-02-14T12:02:03.137Z,10.16
2023-02-14T12:07:21.902Z,9.58
2023-02-14T12:12:27.085Z,8.55
2023-02-14T12:17:37.777Z,9.16
2023-02-14T12:23:05.380Z,10.01
2023-02-14T12:28:16.268Z,10.13
2023-02-14T12:33:22.056Z,8.85
2023-02-14T12:38:52.045Z,7.89
2023-02-14T12:43:56.859Z,6.90
2023-02-14T12:49:17.504Z,6.13
2023-02-14T12:54:39.671Z,5.87
2023-02-14T13:00:01.518Z,5.46
2023-02-14T13:05:43.625Z,5.36
2023-02-14T13:11:07.432Z,5.25
2023-02-14T13:16:54.831Z,5.16
2023-02-14T13:21:59.858Z,4.96
2023-02-14T13:27:07.306Z,4.97
2023-02-14T13:32:14.619Z,4.91
2023-02-14T13:37:20.947Z,4.70
2023-02-14T13:42:50.712Z,4.64
2023-02-14T13:48:02.718Z,4.45
2023-02-14T13:53:04.656Z,4.69
2023-02-14T13:58:19.375Z,4.38
2023-02-14T14:03:30.345Z,4.33
2023-02-14T14:08:53.269Z,4.31
2023-02-14T14:14:01.725Z,3.98
2023-02-14T14:19:07.192Z,3.81
2023-02-14T14:24:26.285Z,3.92
2023-02-14T14:29:53.865Z,3.90
2023-02-14T14:35:02.990Z,3.73
2023-02-14T14:40:09.764Z,3.66
2023-02-14T14:45:29.543Z,3.69
2023-02-14T14:50:34.048Z,3.52
2023-02-14T14:55:38.569Z,3.46
2023-02-14T15:00:43.069Z,3.28
2023-02-14T15:05:50.544Z,3.23
2023-02-14T15:11:37.575Z,3.25
2023-02-14T15:16:50.743Z,3.28
2023-02-14T15:21:53.005Z,3.18
2023-02-14T15:26:56.607Z,3.15
2023-02-14T15:32:02.955Z,3.07
2023-02-14T15:37:07.121Z,2.88
2023-02-14T15:42:31.824Z,2.94
2023-02-14T15:47:33.988Z,2.76
2023-02-14T15:53:19.095Z,2.96
2023-02-14T15:58:30.462Z,2.89
2023-02-14T16:03:37.229Z,2.91
2023-02-14T16:08:41.295Z,2.93
2023-02-14T16:13:47.939Z,2.97
2023-02-14T16:18:56.798Z,2.95
2023-02-14T16:24:08.091Z,2.93
2023-02-14T16:29:13.233Z,2.82
2023-02-14T16:34:16.246Z,2.77
2023-02-14T16:39:24.926Z,2.83
2023-02-14T16:44:27.057Z,2.78
2023-02-14T16:49:29.221Z,2.76
2023-02-14T16:54:32.364Z,2.78
2023-02-14T16:59:34.501Z,2.80
2023-02-14T17:04:36.482Z,2.81
2023-02-14T17:09:45.013Z,2.88
2023-02-14T17:14:51.854Z,2.84
2023-02-14T17:19:54.255Z,2.80
2023-02-14T17:24:57.234Z,2.70
2023-02-14T17:29:59.365Z,2.74
2023-02-14T17:35:03.642Z,2.65
2023-02-14T17:40:06.400Z,2.71
2023-02-14T17:45:11.996Z,2.71
2023-02-14T17:50:15.855Z,2.68
2023-02-14T17:55:17.985Z,2.72
2023-02-14T18:00:21.981Z,2.78
2023-02-14T18:05:23.956Z,2.63
2023-02-14T18:10:25.968Z,2.54
2023-02-14T18:15:28.494Z,2.49
2023-02-14T18:20:30.644Z,2.45
2023-02-14T18:25:33.901Z,2.46
2023-02-14T18:30:37.779Z,2.45
2023-02-14T18:35:40.138Z,2.33
2023-02-14T18:40:43.013Z,2.23
2023-02-14T18:45:45.127Z,2.17
2023-02-14T18:50:47.312Z,2.16
2023-02-14T18:55:49.300Z,2.11
2023-02-14T19:00:51.610Z,2.11
2023-02-14T19:05:53.635Z,2.07
2023-02-14T19:10:55.786Z,1.93
2023-02-14T19:16:01.238Z,1.73
2023-02-14T19:21:13.944Z,1.82
2023-02-14T19:26:23.643Z,1.71
2023-02-14T19:31:27.058Z,1.75
2023-02-14T19:36:29.316Z,1.76
2023-02-14T19:41:34.616Z,1.73
2023-02-14T19:46:38.431Z,1.68
2023-02-14T19:51:40.754Z,1.60
2023-02-14T19:56:46.253Z,1.60
2023-02-14T20:01:54.798Z,1.68
2023-02-14T20:06:57.411Z,1.53
2023-02-14T20:12:01.511Z,1.46
2023-02-14T20:17:06.085Z,1.48
2023-02-14T20:22:08.467Z,1.45
2023-02-14T20:27:10.452Z,1.42
2023-02-14T20:32:15.127Z,1.40
2023-02-14T20:37:17.148Z,1.42
2023-02-14T20:42:19.330Z,1.43
2023-02-14T20:47:21.493Z,1.36
2023-02-14T20:52:23.581Z,1.30
2023-02-14T20:57:25.624Z,1.27
2023-02-14T21:02:27.610Z,1.31
2023-02-14T21:07:30.944Z,1.22
2023-02-14T21:12:32.959Z,1.00
2023-02-14T21:17:34.986Z,1.17
2023-02-14T21:22:41.041Z,1.22
2023-02-14T21:27:43.068Z,1.03
2023-02-14T21:32:45.098Z,1.14
2023-02-14T21:37:47.085Z,1.12
2023-02-14T21:42:49.202Z,1.10
2023-02-14T21:48:09.837Z,1.16
2023-02-14T21:53:11.844Z,1.02
2023-02-14T21:58:13.829Z,1.02
2023-02-14T22:03:15.912Z,1.02
2023-02-14T22:08:17.979Z,0.99
2023-02-14T22:13:19.970Z,0.96
2023-02-14T22:18:22.020Z,0.94
2023-02-14T22:23:28.829Z,0.91
2023-02-14T22:28:31.023Z,0.90
2023-02-14T22:33:33.135Z,0.91
2023-02-14T22:38:36.730Z,0.94
2023-02-14T22:43:40.443Z,0.91
2023-02-14T22:48:43.074Z,0.94
2023-02-14T22:53:45.219Z,0.94
2023-02-14T22:58:47.449Z,0.80
2023-02-14T23:03:53.823Z,1.02
2023-02-14T23:08:57.212Z,1.01
2023-02-14T23:14:18.138Z,0.93
2023-02-14T23:19:41.286Z,0.94
2023-02-14T23:24:43.387Z,0.89
2023-02-14T23:29:45.563Z,0.79
2023-02-14T23:34:47.635Z,0.83
2023-02-14T23:39:50.131Z,0.81
2023-02-14T23:44:52.326Z,0.84
2023-02-14T23:49:54.308Z,0.80
2023-02-14T23:54:56.285Z,0.78
2023-02-14T23:59:58.290Z,0.65
